Latest Weather Observations for Jandakot

IDW60901

Issued at 6:21 am WST Wednesday 15 July 2020 (issued every 10 minutes, with the page automatically refreshed every 10 minutes)

About weather observations | Map of Perth area stations | Latest observations for Perth area | Other Formats
Station Details ID: 009172 Name: JANDAKOT AERO Lat: -32.10 Lon: 115.88 Height: 30.0 m
Data from the previous 72 hours. | See also: Recent months at Jandakot
Date/Time
WST
Temp
°C
App
Temp
°C
Dew
Point
°C
Rel
Hum
%
Delta-T
°C
Wind Press
QNH
hPa
Press
MSL
hPa
Rain since
9am
mm
Dir  Spd
km/h
Gust
km/h
Spd
kts
Gust
kts
15/06:00am 10.0 8.2 9.5 97 0.2 NNE 9 13 5 7 1017.0 1017.0 1.4
15/05:30am 9.9 6.9 9.4 97 0.2 NNE 15 17 8 9 1016.8 1016.8 1.4
15/05:00am 9.5 6.4 8.9 96 0.3 NNE 15 19 8 10 1016.7 1016.7 1.4
15/04:30am 9.1 6.8 9.1 100 0.0 NNE 11 15 6 8 1016.7 1016.7 1.4
15/04:00am 8.3 6.2 8.3 100 0.0 NE 9 11 5 6 1016.8 1016.8 1.4
15/03:30am 9.1 6.8 9.0 99 0.0 NE 11 13 6 7 1017.0 1017.0 1.2
15/03:00am 9.3 7.5 9.3 100 0.0 NE 9 11 5 6 1017.3 1017.3 1.2
15/02:30am 10.1 9.8 10.1 100 0.0 E 2 9 1 5 1017.3 1017.3 1.2
15/02:00am 10.8 11.1 10.8 100 0.0 CALM 0 0 0 0 1017.5 1017.5 1.2
15/01:30am 10.8 10.2 10.5 98 0.2 E 4 7 2 4 1017.7 1017.7 1.2
15/01:00am 11.0 10.2 11.0 100 0.0 ENE 6 9 3 5 1017.5 1017.5 1.2
15/12:30am 11.3 9.6 11.1 99 0.1 E 11 13 6 7 1017.6 1017.6 1.2
15/12:00am 11.4 11.7 10.9 97 0.3 CALM 0 0 0 0 1018.1 1018.1 1.2
 
Date/Time
WST
Temp
°C
App
Temp
°C
Dew
Point
°C
Rel
Hum
%
Delta-T
°C
Wind Press
QNH
hPa
Press
MSL
hPa
Rain since
9am
mm
Dir  Spd
km/h
Gust
km/h
Spd
kts
Gust
kts
14/11:30pm 11.2 9.9 11.2 100 0.0 NNE 9 11 5 6 1018.1 1018.1 1.0
14/11:00pm 10.9 8.7 10.9 100 0.0 NE 13 13 7 7 1017.9 1017.9 1.0
14/10:30pm 11.6 10.0 11.6 100 0.0 ESE 11 13 6 7 1018.0 1018.0 1.0
14/10:24pm 11.6 10.0 11.6 100 0.0 E 11 13 6 7 1018.0 1018.0 1.0
14/10:14pm 11.7 10.5 11.5 99 0.1 NNE 9 15 5 8 1018.3 1018.3 1.0
14/10:00pm 11.5 10.1 11.0 97 0.3 E 9 11 5 6 1018.3 1018.3 0.8
14/09:30pm 11.9 10.8 10.8 93 0.6 ESE 7 9 4 5 1018.1 1018.1 0.8
14/09:00pm 12.0 9.9 11.2 95 0.4 NNE 13 15 7 8 1017.9 1017.9 0.8
14/08:30pm 12.8 11.5 11.2 90 0.8 NW 9 13 5 7 1018.1 1018.1 0.0
14/08:00pm 12.9 11.0 10.4 85 1.3 W 11 17 6 9 1017.7 1017.7 0.0
14/07:30pm 13.2 10.4 8.7 74 2.3 NNW 13 19 7 10 1017.1 1017.1 0.0
14/07:00pm 12.3 10.8 9.3 82 1.5 S 7 11 4 6 1017.1 1017.1 0.0
14/06:30pm 13.7 10.7 9.4 75 2.2 WNW 15 22 8 12 1016.9 1016.9 0.0
14/06:17pm 14.2 9.7 8.6 69 2.8 WNW 22 37 12 20 1016.7 1016.7 0.0
14/06:00pm 14.2 12.1 9.8 75 2.3 WNW 11 15 6 8 1016.5 1016.5 0.0
14/05:30pm 14.8 11.3 8.7 67 3.1 WNW 17 20 9 11 1016.1 1016.1 0.0
14/05:00pm 15.1 11.4 7.9 62 3.6 W 17 20 9 11 1015.9 1015.9 0.0
14/04:30pm 15.5 11.4 8.7 64 3.5 SW 20 30 11 16 1015.7 1015.7 0.0
14/04:00pm 16.1 11.0 7.8 58 4.2 W 24 35 13 19 1015.6 1015.6 0.0
14/03:30pm 15.9 9.9 7.1 56 4.4 W 28 33 15 18 1015.4 1015.4 0.0
14/03:00pm 16.5 9.7 6.9 53 4.7 W 32 41 17 22 1015.3 1015.3 0.0
14/02:30pm 16.7 10.4 7.6 55 4.6 W 30 44 16 24 1015.0 1015.0 0.0
14/02:06pm 16.9 10.7 6.1 49 5.3 W 28 46 15 25 1014.7 1014.7 0.0
14/02:00pm 17.0 10.6 6.8 51 5.0 W 30 43 16 23 1014.6 1014.6 0.0
14/01:30pm 16.1 9.9 7.8 58 4.2 W 30 44 16 24 1014.5 1014.5 0.0
14/01:00pm 16.8 10.8 6.9 52 4.9 W 28 37 15 20 1014.4 1014.4 0.0
14/12:30pm 16.8 11.1 8.2 57 4.4 W 28 41 15 22 1014.5 1014.5 0.0
14/12:00pm 15.3 8.5 7.1 58 4.0 W 32 48 17 26 1015.0 1015.0 0.0
14/11:30am 15.9 10.0 7.4 57 4.2 WSW 28 43 15 23 1014.6 1014.6 0.0
14/11:00am 14.7 8.2 8.0 64 3.3 W 32 44 17 24 1014.9 1014.9 0.0
14/10:30am 15.8 9.2 7.6 58 4.1 W 32 43 17 23 1014.7 1014.7 0.0
14/10:00am 15.3 9.0 7.6 60 3.8 W 30 44 16 24 1014.3 1014.3 0.0
14/09:30am 13.5 7.2 8.8 73 2.4 WSW 32 54 17 29 1014.4 1014.4 0.0
14/09:21am 14.2 7.1 8.2 67 3.0 W 35 54 19 29 1014.1 1014.1 0.0
14/09:00am 13.4 8.1 8.5 72 2.5 W 26 35 14 19 1013.7 1013.7 39.2
14/08:49am 13.4 7.7 8.3 71 2.5 W 28 48 15 26 1013.5 1013.5 39.0
14/08:30am 12.9 8.0 6.7 66 3.0 W 22 30 12 16 1013.1 1013.1 39.0
14/08:00am 14.1 8.6 7.6 65 3.2 W 26 35 14 19 1012.6 1012.6 39.0
14/07:30am 12.5 6.2 5.7 63 3.2 WSW 28 41 15 22 1012.1 1012.1 39.0
14/07:17am 12.4 3.9 7.1 70 2.6 WSW 41 69 22 37 1012.0 1012.0 39.0
14/07:14am 12.9 5.5 6.7 66 3.0 WSW 35 69 19 37 1011.9 1011.9 39.0
14/07:12am 13.2 6.5 7.4 68 2.8 WSW 32 65 17 35 1011.9 1011.9 39.0
14/07:00am 13.2 5.7 6.5 64 3.2 WSW 35 48 19 26 1011.5 1011.5 39.0
14/06:38am 13.9 7.3 7.9 67 3.0 W 32 50 17 27 1010.9 1010.9 39.0
14/06:30am 13.2 7.1 8.3 72 2.4 W 30 43 16 23 1010.8 1010.8 39.0
14/06:13am 13.2 4.4 7.4 68 2.8 WSW 43 70 23 38 1010.5 1010.5 39.0
14/06:10am 13.8 6.0 8.2 69 2.8 WSW 39 70 21 38 1010.3 1010.3 39.0
14/06:08am 14.3 7.5 9.3 72 2.6 WSW 35 57 19 31 1010.2 1010.2 39.0
14/06:00am 14.9 6.4 7.0 59 3.9 W 41 54 22 29 1009.9 1009.9 39.0
14/05:30am 14.9 6.5 8.8 67 3.1 W 43 65 23 35 1009.0 1009.0 39.0
14/05:00am 15.1 7.1 9.0 67 3.1 W 41 61 22 33 1008.6 1008.6 38.8
14/04:36am 14.4 9.2 11.6 83 1.5 WNW 30 52 16 28 1008.3 1008.3 38.8
14/04:30am 13.9 9.1 11.6 86 1.2 WNW 28 41 15 22 1008.1 1008.1 38.8
14/04:10am 12.9 6.9 12.1 95 0.4 WNW 35 54 19 29 1008.4 1008.4 38.8
14/04:09am 12.9 6.5 12.0 94 0.5 WNW 37 54 20 29 1008.4 1008.4 38.8
14/04:00am 12.8 6.6 11.5 92 0.7 WNW 35 54 19 29 1008.1 1008.1 38.6
14/03:50am 13.0 7.1 11.1 88 1.0 WNW 33 74 18 40 1008.3 1008.3 38.4
14/03:30am 13.8 8.3 12.5 92 0.7 WNW 33 52 18 28 1008.1 1008.1 37.4
14/03:24am 13.9 9.4 12.5 91 0.8 WNW 28 52 15 28 1007.7 1007.7 37.4
14/03:00am 13.8 9.1 13.3 97 0.3 WNW 30 43 16 23 1008.3 1008.3 37.0
14/02:49am 14.1 10.3 13.6 97 0.3 W 26 39 14 21 1008.2 1008.2 36.4
14/02:35am 13.9 10.0 13.4 97 0.3 W 26 37 14 20 1008.2 1008.2 36.0
14/02:30am 13.9 9.2 13.3 96 0.3 W 30 43 16 23 1008.2 1008.2 36.0
14/02:00am 14.9 9.8 13.6 92 0.7 WSW 33 44 18 24 1007.5 1007.5 35.8
14/01:43am 16.7 10.4 13.4 81 1.9 WNW 39 63 21 34 1006.9 1006.9 35.4
14/01:42am 17.2 10.9 13.5 79 2.1 WNW 39 52 21 28 1006.9 1006.9 35.4
14/01:30am 17.8 11.9 13.5 76 2.4 NW 37 63 20 34 1006.5 1006.5 35.4
14/01:12am 17.6 12.5 13.7 78 2.2 NW 33 56 18 30 1006.6 1006.6 35.4
14/01:04am 16.4 12.9 14.6 89 1.0 NNW 26 39 14 21 1006.5 1006.5 35.4
14/01:00am 16.2 11.9 14.4 89 1.0 NNW 30 46 16 25 1006.5 1006.5 35.4
14/12:51am 16.1 12.3 14.6 91 0.9 NNW 28 52 15 28 1006.8 1006.8 35.4
14/12:48am 16.6 14.1 16.1 97 0.3 NNW 24 52 13 28 1007.0 1007.0 35.4
14/12:30am 17.6 14.4 15.4 87 1.3 NNW 26 35 14 19 1007.0 1007.0 34.0
14/12:13am 17.3 13.8 15.5 89 1.1 NNW 28 48 15 26 1006.8 1006.8 34.0
14/12:00am 16.4 14.1 15.8 96 0.4 NNW 22 32 12 17 1007.2 1007.2 34.0
 
Date/Time
WST
Temp
°C
App
Temp
°C
Dew
Point
°C
Rel
Hum
%
Delta-T
°C
Wind Press
QNH
hPa
Press
MSL
hPa
Rain since
9am
mm
Dir  Spd
km/h
Gust
km/h
Spd
kts
Gust
kts
13/11:50pm 15.9 14.0 15.7 99 0.1 N 20 30 11 16 1007.5 1007.5 34.0
13/11:31pm 16.3 13.0 16.1 99 0.1 NNW 28 43 15 23 1007.4 1007.4 33.6
13/11:30pm 16.5 13.6 16.2 98 0.2 NNW 26 39 14 21 1007.6 1007.6 32.2
13/11:00pm 16.4 14.2 15.9 97 0.3 NNW 22 32 12 17 1007.9 1007.9 31.2
13/10:52pm 16.3 14.1 16.0 98 0.2 NNW 22 37 12 20 1008.1 1008.1 31.2
13/10:48pm 16.2 13.6 16.0 99 0.1 NNW 24 37 13 20 1008.3 1008.3 31.2
13/10:32pm 16.3 13.1 16.3 100 0.0 NW 28 46 15 25 1008.7 1008.7 30.8
13/10:30pm 16.3 13.9 16.3 100 0.0 NW 24 46 13 25 1008.7 1008.7 30.2
13/10:19pm 16.2 15.0 16.2 100 0.0 N 17 22 9 12 1008.7 1008.7 24.4
13/10:09pm 16.1 14.5 16.1 100 0.0 N 19 30 10 16 1008.4 1008.4 19.8
13/10:00pm 16.0 13.8 16.0 100 0.0 N 22 32 12 17 1009.0 1009.0 19.8
13/09:54pm 15.7 13.0 15.7 100 0.0 N 24 32 13 17 1009.0 1009.0 19.8
13/09:47pm 15.7 13.4 15.7 100 0.0 NNE 22 32 12 17 1008.8 1008.8 17.4
13/09:30pm 15.7 13.8 15.7 100 0.0 NNE 20 28 11 15 1009.1 1009.1 13.4
13/09:02pm 15.9 14.6 15.9 100 0.0 N 17 20 9 11 1009.6 1009.6 13.0
13/09:00pm 15.9 14.6 15.9 100 0.0 N 17 24 9 13 1009.7 1009.7 13.0
13/08:30pm 15.7 - - - - N 19 26 10 14 1010.0 1010.0 13.0
13/08:00pm 15.7 14.7 15.7 100 0.0 NNE 15 17 8 9 1010.2 1010.2 12.0
13/07:37pm 15.9 14.6 15.9 100 0.0 N 17 26 9 14 1010.4 1010.4 12.0
13/07:30pm 15.9 14.3 15.9 100 0.0 N 19 26 10 14 1010.5 1010.5 12.0
13/07:26pm 15.9 14.1 15.9 100 0.0 N 20 26 11 14 1010.6 1010.6 12.0
13/07:11pm 15.9 15.4 15.9 100 0.0 NNE 13 17 7 9 1010.4 1010.4 8.4
13/07:00pm 16.0 15.5 16.0 100 0.0 N 13 15 7 8 1010.4 1010.4 7.2
13/06:54pm 16.0 15.5 16.0 100 0.0 N 13 17 7 9 1010.5 1010.5 7.2
13/06:44pm 16.1 15.7 16.1 100 0.0 N 13 20 7 11 1010.6 1010.6 7.2
13/06:37pm 16.1 14.9 16.1 100 0.0 NNW 17 24 9 13 1010.7 1010.7 7.2
13/06:30pm 16.1 14.5 16.1 100 0.0 N 19 30 10 16 1010.7 1010.7 7.2
13/06:19pm 16.3 15.6 16.3 100 0.0 N 15 22 8 12 1011.0 1011.0 6.2
13/06:00pm 16.4 15.9 15.9 97 0.3 NNW 13 17 7 9 1010.8 1010.8 5.2
13/05:30pm 16.3 15.1 16.0 98 0.2 NNW 17 24 9 13 1011.1 1011.1 5.2
13/05:00pm 17.7 16.5 15.1 85 1.5 NW 15 20 8 11 1011.0 1011.0 4.6
13/04:30pm 17.9 16.3 15.0 83 1.7 NNW 17 22 9 12 1011.1 1011.1 4.6
13/04:00pm 18.0 15.9 15.1 83 1.7 NNW 20 28 11 15 1011.3 1011.3 4.6
13/03:30pm 17.3 16.1 16.2 93 0.7 NNW 17 20 9 11 1011.6 1011.6 4.6
13/03:21pm 16.8 14.9 15.8 94 0.6 NW 20 28 11 15 1011.7 1011.7 4.6
13/03:02pm 16.6 13.1 15.5 93 0.6 WNW 28 39 15 21 1012.0 1012.0 4.4
13/03:00pm 16.7 13.0 15.1 90 0.9 WNW 28 39 15 21 1011.8 1011.8 4.0
13/02:30pm 18.6 14.0 14.5 77 2.4 NW 32 46 17 25 1011.8 1011.8 4.0
13/02:00pm 17.7 13.2 15.3 86 1.4 WNW 33 44 18 24 1012.0 1012.0 4.0
13/01:43pm 17.7 14.1 15.3 86 1.4 NNW 28 46 15 25 1012.0 1012.0 4.0
13/01:30pm 19.3 17.1 16.0 81 2.0 NW 22 32 12 17 1012.0 1012.0 4.0
13/01:00pm 17.5 15.1 16.4 93 0.7 W 24 33 13 18 1012.7 1012.7 3.8
13/12:43pm 16.7 14.6 15.2 91 0.9 NW 20 44 11 24 1013.1 1013.1 3.8
13/12:30pm 18.0 18.0 17.2 95 0.5 NNW 13 17 7 9 1013.2 1013.2 3.6
13/12:00pm 16.7 16.5 16.7 100 0.0 N 13 15 7 8 1013.7 1013.7 3.6
13/11:43am 16.3 15.9 16.3 100 0.0 N 13 15 7 8 1013.9 1013.9 3.4
13/11:30am 16.1 16.0 16.1 100 0.0 N 11 13 6 7 1014.2 1014.2 3.4
13/11:09am 15.7 15.5 15.7 100 0.0 N 11 15 6 8 1014.4 1014.4 3.4
13/11:00am 15.0 13.8 15.0 100 0.0 N 15 17 8 9 1014.6 1014.6 3.4
13/10:43am 15.0 14.2 15.0 100 0.0 N 13 19 7 10 1014.6 1014.6 2.2
13/10:30am 15.3 14.2 15.3 100 0.0 N 15 19 8 10 1014.4 1014.4 1.6
13/10:00am 14.4 13.3 14.4 100 0.0 N 13 15 7 8 1014.7 1014.7 1.6
13/09:42am 14.3 12.8 14.3 100 0.0 N 15 24 8 13 1015.0 1015.0 0.8
13/09:38am 14.3 12.8 14.3 100 0.0 N 15 24 8 13 1015.0 1015.0 0.8
13/09:31am 14.3 12.8 14.3 100 0.0 N 15 20 8 11 1014.9 1014.9 0.6
13/09:30am 14.2 12.7 14.2 100 0.0 N 15 20 8 11 1014.9 1014.9 0.6
13/09:14am 14.1 12.6 14.1 100 0.0 N 15 17 8 9 1014.7 1014.7 0.0
13/09:01am 13.5 12.1 13.5 100 0.0 N 13 20 7 11 1014.7 1014.7 0.0
13/09:00am 13.5 11.8 13.5 100 0.0 N 15 20 8 11 1014.8 1014.8 6.0
13/08:30am 13.2 10.6 13.2 100 0.0 NNE 19 24 10 13 1014.4 1014.4 6.0
13/08:00am 12.4 9.9 12.4 100 0.0 NE 17 20 9 11 1014.4 1014.4 6.0
13/07:30am 12.3 10.6 12.3 100 0.0 NNE 13 15 7 8 1014.4 1014.4 6.0
13/07:15am 12.5 10.8 12.5 100 0.0 N 13 15 7 8 1014.6 1014.6 5.6
13/07:02am 12.4 10.7 12.4 100 0.0 NNE 13 17 7 9 1014.3 1014.3 4.6
13/07:00am 12.4 10.7 12.4 100 0.0 NNE 13 17 7 9 1014.3 1014.3 4.6
13/06:43am 12.4 11.4 12.4 100 0.0 N 9 11 5 6 1014.3 1014.3 4.2
13/06:30am 12.4 10.7 12.4 100 0.0 N 13 19 7 10 1014.2 1014.2 3.0
13/06:00am 11.9 10.0 11.9 100 0.0 NNE 13 17 7 9 1013.9 1013.9 3.0
13/05:30am 11.8 10.3 11.8 100 0.0 NNE 11 17 6 9 1013.8 1013.8 3.0
13/05:00am 11.7 9.7 11.4 98 0.2 NE 13 15 7 8 1013.7 1013.7 2.0
13/04:30am 12.0 10.5 10.7 92 0.7 N 9 15 5 8 1013.9 1013.9 1.4
13/04:00am 11.9 9.4 11.0 94 0.5 NNE 15 19 8 10 1014.0 1014.0 1.4
13/03:30am 12.0 9.6 11.4 96 0.3 NE 15 17 8 9 1014.4 1014.4 1.4
13/03:00am 12.6 10.6 11.5 93 0.6 NNE 13 17 7 9 1014.4 1014.4 1.2
13/02:30am 12.9 11.3 12.9 100 0.0 NNE 13 15 7 8 1014.5 1014.5 1.2
13/02:00am 13.0 11.5 13.0 100 0.0 NE 13 13 7 7 1014.7 1014.7 1.2
13/01:30am 13.2 12.4 13.0 99 0.1 NNE 9 11 5 6 1014.7 1014.7 1.2
13/01:00am 13.4 14.0 13.1 98 0.2 NNE 2 9 1 5 1015.0 1015.0 1.2
13/12:30am 13.2 13.2 12.3 94 0.5 NNE 4 9 2 5 1015.3 1015.3 0.8
13/12:00am 13.4 12.4 12.3 93 0.6 NE 9 11 5 6 1015.1 1015.1 0.6
 
Date/Time
WST
Temp
°C
App
Temp
°C
Dew
Point
°C
Rel
Hum
%
Delta-T
°C
Wind Press
QNH
hPa
Press
MSL
hPa
Rain since
9am
mm
Dir  Spd
km/h
Gust
km/h
Spd
kts
Gust
kts
12/11:30pm 14.6 14.4 13.0 90 0.9 NNW 6 11 3 6 1015.0 1015.0 0.6
12/11:00pm 15.6 15.1 15.0 96 0.3 W 11 13 6 7 1015.2 1015.2 0.6
12/10:30pm 13.9 10.6 9.7 76 2.2 W 17 24 9 13 1015.2 1015.2 0.6
12/10:00pm 13.8 9.4 4.9 55 4.1 NNE 17 20 9 11 1014.4 1014.4 0.0
12/09:30pm 13.1 9.0 4.5 56 3.9 N 15 17 8 9 1014.6 1014.6 0.0
12/09:00pm 12.8 8.7 4.5 57 3.8 NNE 15 19 8 10 1014.2 1014.2 0.0
12/08:30pm 12.5 8.8 4.5 58 3.6 N 13 17 7 9 1014.4 1014.4 0.0
12/08:00pm 14.5 10.8 4.5 51 4.6 N 13 15 7 8 1014.6 1014.6 0.0
12/07:30pm 14.2 10.1 4.5 52 4.5 N 15 19 8 10 1014.4 1014.4 0.0
12/07:00pm 14.9 10.5 4.6 50 4.8 NNE 17 20 9 11 1014.2 1014.2 0.0
12/06:30pm 15.6 12.3 4.6 48 5.2 N 11 15 6 8 1014.4 1014.4 0.0
12/06:00pm 17.9 13.0 4.1 40 6.5 NNE 19 32 10 17 1014.1 1014.1 0.0
12/05:30pm 19.1 14.4 5.2 40 6.8 N 19 28 10 15 1014.7 1014.7 0.0
12/05:00pm 20.1 15.1 4.6 36 7.5 N 20 28 11 15 1015.0 1015.0 0.0
12/04:30pm 20.8 15.9 4.0 33 8.1 NNW 19 26 10 14 1015.4 1015.4 0.0
12/04:00pm 21.5 15.7 2.2 28 9.0 N 22 32 12 17 1015.6 1015.6 0.0
12/03:30pm 21.3 15.7 3.5 31 8.5 NNE 22 28 12 15 1015.9 1015.9 0.0
12/03:00pm 21.3 16.0 3.0 30 8.7 N 20 26 11 14 1016.1 1016.1 0.0
12/02:30pm 21.0 15.7 3.2 31 8.5 NNE 20 28 11 15 1016.3 1016.3 0.0
12/02:00pm 20.6 15.0 3.3 32 8.2 N 22 30 12 16 1016.5 1016.5 0.0
12/01:30pm 20.3 14.0 3.5 33 8.0 NNE 26 32 14 17 1016.8 1016.8 0.0
12/01:00pm 20.1 14.0 2.9 32 8.0 NNE 24 32 13 17 1017.5 1017.5 0.0
12/12:30pm 19.5 13.3 1.9 31 8.0 NNE 24 32 13 17 1018.1 1018.1 0.0
12/12:00pm 19.0 12.8 2.0 32 7.7 N 24 35 13 19 1018.6 1018.6 0.0
12/11:30am 18.3 10.5 1.8 33 7.5 NNE 32 43 17 23 1019.2 1019.2 0.0
12/11:00am 17.6 10.7 2.8 37 6.8 NNE 28 35 15 19 1019.5 1019.5 0.0
12/10:30am 16.1 8.3 1.4 37 6.5 NNE 32 43 17 23 1020.1 1020.1 0.0
12/10:00am 15.4 7.9 1.2 38 6.2 NNE 30 41 16 22 1020.4 1020.4 0.0
12/09:30am 14.5 7.4 1.4 41 5.7 NNE 28 43 15 23 1020.4 1020.4 0.0
12/09:00am 13.0 6.0 1.7 46 4.8 NNE 28 35 15 19 1020.4 1020.4 0.0
12/08:30am 11.4 5.9 1.9 52 4.0 NNE 20 28 11 15 1020.9 1020.9 0.0
12/08:00am 9.7 4.4 1.8 58 3.3 NNE 19 22 10 12 1021.0 1021.0 0.0
12/07:30am 7.8 2.3 1.9 66 2.4 NE 20 26 11 14 1021.0 1021.0 0.0
12/07:00am 4.6 -0.8 1.5 80 1.2 NE 19 20 10 11 1021.2 1021.2 0.0
12/06:30am 6.1 1.8 1.2 71 1.9 NNE 13 13 7 7 1021.4 1021.4 0.0

Latest Capital City Observations: Canberra | Sydney | Melbourne | Brisbane | Adelaide | Perth | Hobart | Darwin

Other formats

Comma delimited format used in spreadsheet applications
http://www.bom.gov.au/fwo/IDW60901/IDW60901.94609.axf

JavaScript Object Notation format (JSON) in row-major order
http://www.bom.gov.au/fwo/IDW60901/IDW60901.94609.json

Data quality

Most of these data are generated automatically and are frequently updated. Quality checks on data are not normally performed. It is possible for incorrect values to appear. Refer to information at About Latest Weather Observations and please check the disclaimer before using these data.